createdAt,value
2019-04-07T00:01:49.559Z,6.70
2019-04-07T00:04:16.927Z,6.70
2019-04-07T00:06:43.909Z,6.80
2019-04-07T00:09:10.890Z,6.50
2019-04-07T00:11:37.579Z,6.40
2019-04-07T00:14:04.447Z,6.20
2019-04-07T00:16:32.793Z,6.00
2019-04-07T00:19:00.120Z,6.00
2019-04-07T00:21:26.852Z,6.00
2019-04-07T00:23:54.442Z,6.00
2019-04-07T00:26:22.606Z,6.00
2019-04-07T00:28:49.809Z,6.20
2019-04-07T00:31:18.056Z,6.00
2019-04-07T00:33:47.300Z,5.90
2019-04-07T00:36:13.997Z,5.90
2019-04-07T00:38:40.714Z,5.80
2019-04-07T00:41:09.535Z,5.80
2019-04-07T00:43:38.758Z,5.70
2019-04-07T00:46:06.304Z,5.60
2019-04-07T00:48:33.506Z,5.60
2019-04-07T00:51:16.738Z,5.50
2019-04-07T00:53:44.183Z,5.50
2019-04-07T00:56:12.482Z,5.50
2019-04-07T00:58:39.766Z,5.50
2019-04-07T01:01:07.591Z,5.50
2019-04-07T01:03:34.932Z,5.50
2019-04-07T01:06:02.208Z,5.40
2019-04-07T01:08:29.375Z,5.50
2019-04-07T01:10:56.980Z,5.40
2019-04-07T01:13:24.705Z,5.30
2019-04-07T01:16:10.812Z,5.40
2019-04-07T01:18:38.000Z,5.30
2019-04-07T01:21:05.303Z,5.30
2019-04-07T01:23:32.468Z,5.20
2019-04-07T01:25:59.491Z,5.20
2019-04-07T01:28:26.278Z,5.10
2019-04-07T01:30:53.340Z,5.10
2019-04-07T01:33:22.150Z,5.10
2019-04-07T01:35:50.280Z,5.10
2019-04-07T01:38:17.037Z,5.00
2019-04-07T01:40:45.564Z,5.00
2019-04-07T01:43:22.821Z,5.00
2019-04-07T01:46:00.934Z,5.00
2019-04-07T01:48:46.967Z,4.90
2019-04-07T01:51:15.744Z,4.80
2019-04-07T01:53:48.769Z,4.80
2019-04-07T01:56:19.673Z,4.90
2019-04-07T01:58:50.976Z,4.90
2019-04-07T02:01:23.064Z,4.90
2019-04-07T02:04:03.940Z,4.90
2019-04-07T02:06:49.525Z,4.80
2019-04-07T02:09:22.439Z,4.90
2019-04-07T02:12:05.849Z,4.80
2019-04-07T02:14:36.812Z,4.80
2019-04-07T02:17:07.349Z,4.70
2019-04-07T02:19:38.460Z,4.70
2019-04-07T02:22:23.917Z,4.70
2019-04-07T02:25:09.927Z,4.70
2019-04-07T02:27:41.122Z,4.80
2019-04-07T02:30:26.228Z,4.70
2019-04-07T02:32:55.110Z,4.70
2019-04-07T02:35:37.811Z,4.70
2019-04-07T02:38:09.053Z,4.70
2019-04-07T02:40:38.382Z,4.60
2019-04-07T02:43:10.523Z,4.60
2019-04-07T02:45:50.855Z,4.50
2019-04-07T02:48:20.018Z,4.50
2019-04-07T02:51:05.639Z,4.50
2019-04-07T02:53:53.139Z,4.40
2019-04-07T02:56:33.751Z,4.30
2019-04-07T02:59:02.805Z,4.30
2019-04-07T03:01:33.651Z,4.30
2019-04-07T03:04:04.949Z,4.30
2019-04-07T03:06:44.048Z,4.30
2019-04-07T03:09:10.962Z,4.30
2019-04-07T03:11:46.565Z,4.30
2019-04-07T03:14:17.870Z,4.30
2019-04-07T03:16:55.831Z,4.30
2019-04-07T03:19:39.482Z,4.30
2019-04-07T03:22:11.130Z,4.20
2019-04-07T03:24:40.430Z,4.20
2019-04-07T03:27:21.896Z,4.20
2019-04-07T03:29:50.889Z,4.20
2019-04-07T03:32:27.583Z,4.10
2019-04-07T03:35:15.342Z,4.10
2019-04-07T03:37:49.757Z,4.10
2019-04-07T03:40:24.420Z,4.10
2019-04-07T03:42:55.733Z,4.10
2019-04-07T03:45:27.307Z,3.80
2019-04-07T03:50:46.907Z,4.10
2019-04-07T03:53:21.617Z,4.00
2019-04-07T03:55:59.853Z,4.00
2019-04-07T03:58:47.573Z,4.10
2019-04-07T04:01:16.565Z,4.00
2019-04-07T04:04:00.730Z,4.00
2019-04-07T04:06:46.050Z,4.00
2019-04-07T04:09:17.430Z,4.00
2019-04-07T04:11:46.973Z,4.00
2019-04-07T04:14:19.365Z,4.00
2019-04-07T04:16:49.029Z,4.00
2019-04-07T04:19:16.835Z,4.00
2019-04-07T04:21:44.453Z,4.00
2019-04-07T04:24:12.361Z,4.00
2019-04-07T04:26:39.053Z,4.10
2019-04-07T04:29:05.719Z,4.10
2019-04-07T04:31:33.778Z,4.10
2019-04-07T04:34:02.277Z,4.10
2019-04-07T04:36:29.428Z,4.10
2019-04-07T04:38:56.263Z,4.20
2019-04-07T04:41:23.408Z,4.60
2019-04-07T04:43:49.874Z,4.30
2019-04-07T04:46:17.033Z,4.30
2019-04-07T04:48:43.724Z,4.30
2019-04-07T04:51:10.227Z,4.30
2019-04-07T04:53:38.984Z,4.20
2019-04-07T04:56:07.532Z,4.20
2019-04-07T04:58:34.776Z,4.20
2019-04-07T05:01:02.234Z,4.10
2019-04-07T05:03:29.458Z,4.10
2019-04-07T05:05:56.326Z,4.10
2019-04-07T05:08:24.737Z,4.10
2019-04-07T05:10:51.973Z,4.20
2019-04-07T05:13:19.015Z,4.20
2019-04-07T05:15:46.877Z,4.30
2019-04-07T05:18:14.200Z,4.50
2019-04-07T05:20:42.755Z,4.50
2019-04-07T05:23:09.818Z,4.60
2019-04-07T05:25:36.967Z,4.60
2019-04-07T05:28:04.847Z,4.60
2019-04-07T05:30:31.492Z,4.60
2019-04-07T05:32:59.015Z,5.40
2019-04-07T05:35:25.763Z,4.70
2019-04-07T05:38:02.283Z,4.70
2019-04-07T05:40:21.254Z,4.70
2019-04-07T05:42:48.351Z,4.80
2019-04-07T05:45:17.269Z,4.90
2019-04-07T05:47:48.213Z,4.90
2019-04-07T05:50:13.315Z,5.00
2019-04-07T05:52:40.824Z,5.10
2019-04-07T05:55:07.842Z,5.10
2019-04-07T05:57:35.848Z,5.20
2019-04-07T06:00:06.674Z,5.30
2019-04-07T06:02:34.261Z,5.30
2019-04-07T06:05:01.237Z,5.40
2019-04-07T06:07:30.690Z,5.50
2019-04-07T06:09:57.599Z,5.60
2019-04-07T06:12:27.357Z,5.70
2019-04-07T06:14:55.404Z,5.80
2019-04-07T06:17:26.331Z,6.60
2019-04-07T06:19:53.345Z,6.00
2019-04-07T06:22:22.686Z,6.20
2019-04-07T06:24:51.507Z,6.30
2019-04-07T06:27:18.725Z,6.30
2019-04-07T06:32:38.383Z,6.50
2019-04-07T06:35:06.556Z,6.60
2019-04-07T06:37:34.631Z,6.80
2019-04-07T06:40:01.300Z,6.90
2019-04-07T06:42:31.557Z,7.10
2019-04-07T06:45:07.973Z,7.20
2019-04-07T06:47:53.893Z,7.40
2019-04-07T06:50:24.241Z,7.50
2019-04-07T06:53:02.234Z,7.80
2019-04-07T06:55:37.175Z,8.40
2019-04-07T06:58:15.342Z,8.10
2019-04-07T07:07:22.595Z,8.80
2019-04-07T07:10:00.132Z,9.00
2019-04-07T07:12:43.955Z,9.20
2019-04-07T07:15:21.710Z,9.30
2019-04-07T07:17:51.081Z,9.50
2019-04-07T07:20:28.670Z,9.70
2019-04-07T07:23:13.350Z,9.80
2019-04-07T07:25:42.017Z,9.90
2019-04-07T07:28:11.522Z,10.10
2019-04-07T07:30:37.178Z,10.30
2019-04-07T07:33:09.500Z,10.40
2019-04-07T07:35:37.693Z,10.50
2019-04-07T07:38:04.917Z,10.60
2019-04-07T07:40:34.065Z,10.70
2019-04-07T07:43:03.478Z,10.80
2019-04-07T07:45:30.736Z,11.00
2019-04-07T07:47:57.700Z,11.10
2019-04-07T07:50:24.511Z,11.40
2019-04-07T07:52:54.137Z,11.50
2019-04-07T07:55:20.844Z,11.80
2019-04-07T07:57:49.096Z,11.90
2019-04-07T08:00:16.187Z,12.10
2019-04-07T08:02:44.326Z,12.20
2019-04-07T08:05:13.616Z,12.40
2019-04-07T08:07:44.350Z,12.60
2019-04-07T08:10:09.512Z,12.90
2019-04-07T08:12:37.251Z,13.00
2019-04-07T08:15:09.185Z,13.20
2019-04-07T08:17:35.704Z,13.30
2019-04-07T08:20:11.374Z,13.30
2019-04-07T08:22:43.164Z,13.30
2019-04-07T08:25:10.955Z,13.50
2019-04-07T08:27:39.807Z,13.60
2019-04-07T08:30:11.842Z,13.70
2019-04-07T08:32:36.100Z,13.90
2019-04-07T08:35:05.823Z,14.10
2019-04-07T08:37:34.074Z,14.40
2019-04-07T08:40:07.126Z,14.50
2019-04-07T08:42:32.651Z,14.50
2019-04-07T08:45:00.727Z,14.50
2019-04-07T08:47:28.939Z,14.50
2019-04-07T08:49:57.800Z,14.50
2019-04-07T08:52:27.974Z,14.50
2019-04-07T08:54:55.531Z,14.80
2019-04-07T08:57:22.628Z,15.50
2019-04-07T08:59:49.567Z,17.00
2019-04-07T09:02:18.848Z,19.20
2019-04-07T09:04:49.732Z,21.20
2019-04-07T09:07:14.072Z,22.50
2019-04-07T09:09:46.641Z,23.60
2019-04-07T09:12:11.430Z,24.20
2019-04-07T09:14:39.833Z,24.90
2019-04-07T09:17:30.028Z,25.20
2019-04-07T09:19:50.779Z,25.10
2019-04-07T09:22:23.217Z,24.80
2019-04-07T09:24:54.844Z,25.10
2019-04-07T09:27:39.904Z,25.70
2019-04-07T09:30:26.224Z,25.70
2019-04-07T09:32:55.895Z,26.40
2019-04-07T09:35:27.745Z,26.80
2019-04-07T09:38:00.452Z,27.10
2019-04-07T09:40:49.565Z,27.40
2019-04-07T09:43:34.792Z,27.60
2019-04-07T09:46:03.683Z,27.40
2019-04-07T09:48:39.177Z,27.20
2019-04-07T09:51:07.437Z,27.20
2019-04-07T09:53:42.876Z,27.10
2019-04-07T09:56:11.985Z,27.70
2019-04-07T09:58:46.961Z,27.90
2019-04-07T10:01:20.762Z,27.20
2019-04-07T10:03:48.965Z,26.80
2019-04-07T10:06:39.905Z,26.70
2019-04-07T10:09:18.673Z,27.20
2019-04-07T10:11:51.899Z,27.50
2019-04-07T10:14:23.780Z,27.70
2019-04-07T10:16:56.290Z,27.70
2019-04-07T10:19:41.287Z,27.80
2019-04-07T10:22:13.879Z,28.00
2019-04-07T10:24:49.440Z,28.40
2019-04-07T10:27:22.321Z,28.80
2019-04-07T10:29:54.592Z,29.10
2019-04-07T10:32:42.825Z,28.90
2019-04-07T10:35:12.562Z,28.80
2019-04-07T10:37:51.333Z,27.70
2019-04-07T10:43:28.173Z,28.30
2019-04-07T10:55:32.991Z,26.20
2019-04-07T11:07:46.843Z,24.50
2019-04-07T11:10:37.876Z,23.90
2019-04-07T12:14:53.468Z,22.10
2019-04-07T12:26:51.946Z,21.10
2019-04-07T12:42:16.737Z,23.20
2019-04-07T12:45:11.174Z,23.30
2019-04-07T12:48:06.551Z,24.00
2019-04-07T12:50:49.942Z,23.40
2019-04-07T12:54:01.871Z,23.50
2019-04-07T12:59:47.779Z,23.40
2019-04-07T13:11:07.464Z,22.40
2019-04-07T13:19:27.609Z,22.20
2019-04-07T13:22:01.766Z,21.80
2019-04-07T13:24:45.534Z,24.50
2019-04-07T13:30:37.888Z,21.40
2019-04-07T13:33:15.095Z,22.30
2019-04-07T13:35:51.959Z,23.10
2019-04-07T13:57:25.747Z,22.20
2019-04-07T14:00:30.601Z,21.30
2019-04-07T14:06:28.386Z,21.70
2019-04-07T14:24:27.170Z,23.30
2019-04-07T14:27:03.359Z,24.20
2019-04-07T14:33:06.482Z,21.90
2019-04-07T14:39:06.906Z,22.40
2019-04-07T14:42:09.121Z,23.10
2019-04-07T14:47:44.663Z,22.40
2019-04-07T14:50:26.570Z,22.70
2019-04-07T14:53:03.254Z,22.90
2019-04-07T15:05:11.499Z,22.40
2019-04-07T15:07:57.915Z,22.40
2019-04-07T15:13:38.646Z,23.50
2019-04-07T15:16:19.575Z,24.30
2019-04-07T15:22:01.095Z,23.50
2019-04-07T15:24:37.658Z,23.20
2019-04-07T15:35:42.662Z,23.30
2019-04-07T15:38:16.518Z,22.90
2019-04-07T15:41:00.901Z,22.30
2019-04-07T15:43:34.870Z,23.90
2019-04-07T15:48:59.422Z,23.60
2019-04-07T16:00:00.123Z,22.40
2019-04-07T16:14:09.115Z,24.50
2019-04-07T16:19:50.877Z,24.90
2019-04-07T16:22:26.575Z,25.10
2019-04-07T16:25:27.591Z,25.40
2019-04-07T16:31:08.985Z,24.60
2019-04-07T16:50:38.118Z,22.80
2019-04-07T16:53:18.435Z,22.80
2019-04-07T16:55:54.888Z,23.20
2019-04-07T17:01:17.415Z,23.10
2019-04-07T17:03:49.912Z,23.10
2019-04-07T17:06:34.701Z,23.30
2019-04-07T17:09:06.630Z,22.60
2019-04-07T17:11:40.813Z,22.40
2019-04-07T17:14:14.108Z,21.80
2019-04-07T17:16:45.604Z,21.60
2019-04-07T17:31:35.906Z,19.10
2019-04-07T17:34:09.425Z,18.20
2019-04-07T17:36:35.481Z,18.00
2019-04-07T17:39:09.964Z,17.60
2019-04-07T17:41:37.445Z,17.30
2019-04-07T17:47:02.212Z,16.50
2019-04-07T17:49:35.824Z,15.90
2019-04-07T17:55:07.718Z,15.20
2019-04-07T17:57:55.087Z,15.60
2019-04-07T18:00:37.437Z,14.60
2019-04-07T18:06:22.863Z,14.10
2019-04-07T18:09:19.750Z,14.00
2019-04-07T18:11:58.773Z,13.80
2019-04-07T18:26:32.942Z,12.40
2019-04-07T18:29:04.691Z,12.30
2019-04-07T18:31:39.794Z,12.00
2019-04-07T18:34:27.143Z,11.90
2019-04-07T18:37:09.563Z,11.70
2019-04-07T18:39:44.164Z,11.60
2019-04-07T18:42:21.138Z,11.60
2019-04-07T18:44:51.027Z,12.40
2019-04-07T18:47:33.744Z,11.50
2019-04-07T18:50:10.675Z,10.80
2019-04-07T18:55:52.525Z,11.20
2019-04-07T18:58:31.531Z,11.00
2019-04-07T19:01:18.840Z,10.90
2019-04-07T19:03:51.129Z,10.70
2019-04-07T19:06:21.908Z,11.20
2019-04-07T19:08:58.833Z,10.50
2019-04-07T19:11:29.772Z,10.40
2019-04-07T19:14:21.087Z,10.40
2019-04-07T19:16:38.598Z,10.40
2019-04-07T19:19:27.768Z,10.50
2019-04-07T19:22:17.953Z,10.10
2019-04-07T19:24:54.619Z,9.70
2019-04-07T19:27:30.171Z,10.50
2019-04-07T19:29:59.701Z,9.20
2019-04-07T19:32:48.601Z,9.70
2019-04-07T19:35:40.664Z,10.20
2019-04-07T19:38:22.439Z,10.30
2019-04-07T19:41:09.455Z,10.20
2019-04-07T19:43:43.535Z,10.10
2019-04-07T19:46:11.346Z,9.90
2019-04-07T19:48:52.334Z,9.70
2019-04-07T19:51:38.299Z,9.60
2019-04-07T19:57:23.852Z,9.50
2019-04-07T20:00:00.475Z,9.40
2019-04-07T20:02:47.168Z,9.30
2019-04-07T20:05:24.119Z,9.20
2019-04-07T20:08:19.023Z,9.10
2019-04-07T20:11:03.248Z,9.00
2019-04-07T20:13:52.990Z,8.90
2019-04-07T20:16:24.511Z,8.80
2019-04-07T20:19:08.828Z,8.90
2019-04-07T20:24:38.452Z,8.90
2019-04-07T20:27:12.857Z,8.80
2019-04-07T20:29:47.949Z,8.70
2019-04-07T20:32:28.084Z,8.70
2019-04-07T20:35:20.872Z,8.60
2019-04-07T20:37:55.038Z,8.50
2019-04-07T20:40:28.264Z,8.50
2019-04-07T20:43:02.605Z,8.40
2019-04-07T20:45:36.582Z,8.40
2019-04-07T20:48:05.986Z,9.10
2019-04-07T20:50:35.566Z,8.90
2019-04-07T20:53:29.012Z,8.20
2019-04-07T20:56:00.354Z,8.30
2019-04-07T20:58:44.782Z,8.10
2019-04-07T21:01:20.083Z,8.10
2019-04-07T21:03:57.640Z,8.00
2019-04-07T21:06:44.171Z,8.00
2019-04-07T21:09:14.036Z,8.00
2019-04-07T21:11:47.390Z,8.00
2019-04-07T21:14:19.161Z,8.00
2019-04-07T21:16:59.320Z,8.00
2019-04-07T21:19:38.854Z,7.90
2019-04-07T21:22:12.439Z,7.80
2019-04-07T21:24:43.447Z,7.70
2019-04-07T21:27:14.840Z,7.60
2019-04-07T21:29:59.181Z,6.90
2019-04-07T21:32:40.719Z,8.50
2019-04-07T21:35:19.224Z,7.50
2019-04-07T21:38:01.158Z,7.50
2019-04-07T21:40:46.338Z,7.60
2019-04-07T21:43:34.804Z,7.60
2019-04-07T21:46:22.664Z,7.80
2019-04-07T21:49:06.315Z,7.80
2019-04-07T21:51:37.783Z,7.90
2019-04-07T21:54:06.487Z,8.00
2019-04-07T21:56:38.987Z,8.10
2019-04-07T21:59:18.642Z,8.10
2019-04-07T22:01:59.935Z,8.00
2019-04-07T22:04:38.183Z,8.00
2019-04-07T22:07:15.870Z,8.10
2019-04-07T22:09:54.664Z,8.30
2019-04-07T22:12:25.796Z,8.10
2019-04-07T22:14:50.624Z,8.10
2019-04-07T22:17:17.324Z,8.10
2019-04-07T22:19:46.690Z,8.00
2019-04-07T22:22:16.538Z,8.00
2019-04-07T22:24:43.194Z,8.00
2019-04-07T22:27:11.202Z,7.90
2019-04-07T22:29:38.024Z,7.80
2019-04-07T22:32:05.325Z,7.70
2019-04-07T22:34:33.154Z,7.60
2019-04-07T22:37:01.266Z,7.50
2019-04-07T22:39:29.816Z,7.40
2019-04-07T22:41:57.391Z,7.40
2019-04-07T22:44:25.070Z,7.20
2019-04-07T22:46:52.311Z,7.20
2019-04-07T22:49:19.808Z,7.30
2019-04-07T22:51:49.034Z,7.40
2019-04-07T22:54:15.529Z,7.80
2019-04-07T22:56:42.500Z,7.50
2019-04-07T22:59:11.213Z,7.70
2019-04-07T23:01:38.973Z,7.90
2019-04-07T23:04:06.201Z,8.10
2019-04-07T23:06:34.579Z,8.10
2019-04-07T23:09:01.523Z,8.00
2019-04-07T23:11:28.762Z,7.80
2019-04-07T23:13:55.494Z,7.60
2019-04-07T23:16:21.998Z,7.50
2019-04-07T23:18:49.961Z,7.20
2019-04-07T23:21:17.266Z,7.00
2019-04-07T23:23:44.257Z,6.80
2019-04-07T23:26:11.298Z,6.70
2019-04-07T23:28:37.777Z,6.70
2019-04-07T23:31:04.144Z,6.70
2019-04-07T23:33:31.876Z,6.60
2019-04-07T23:35:59.779Z,6.40
2019-04-07T23:38:26.393Z,6.60
2019-04-07T23:40:53.534Z,6.20
2019-04-07T23:43:22.183Z,6.10
2019-04-07T23:45:49.687Z,6.00
2019-04-07T23:48:17.995Z,6.00
2019-04-07T23:50:44.669Z,6.00
2019-04-07T23:53:50.662Z,6.10
2019-04-07T23:56:17.661Z,6.10
2019-04-07T23:58:46.125Z,6.10
